sensor_id;sensor_type;location;lat;lon;timestamp;P1;durP1;ratioP1;P2;durP2;ratioP2
24721;SDS011;12826;52.368;5.258;2022-07-18T00:00:21;8.32;;;5.68;;
24721;SDS011;12826;52.368;5.258;2022-07-18T00:03:23;12.82;;;6.25;;
24721;SDS011;12826;52.368;5.258;2022-07-18T00:06:25;8.40;;;6.00;;
24721;SDS011;12826;52.368;5.258;2022-07-18T00:09:26;11.50;;;5.72;;
24721;SDS011;12826;52.368;5.258;2022-07-18T00:12:26;9.85;;;5.82;;
24721;SDS011;12826;52.368;5.258;2022-07-18T00:15:27;9.20;;;6.18;;
24721;SDS011;12826;52.368;5.258;2022-07-18T00:18:28;13.60;;;6.00;;
24721;SDS011;12826;52.368;5.258;2022-07-18T00:21:29;9.13;;;6.18;;
24721;SDS011;12826;52.368;5.258;2022-07-18T00:24:29;11.55;;;6.35;;
24721;SDS011;12826;52.368;5.258;2022-07-18T00:27:32;8.18;;;5.57;;
24721;SDS011;12826;52.368;5.258;2022-07-18T00:30:33;10.88;;;6.00;;
24721;SDS011;12826;52.368;5.258;2022-07-18T00:33:34;9.05;;;5.95;;
24721;SDS011;12826;52.368;5.258;2022-07-18T00:36:37;8.38;;;5.80;;
24721;SDS011;12826;52.368;5.258;2022-07-18T00:39:37;10.02;;;6.28;;
24721;SDS011;12826;52.368;5.258;2022-07-18T00:42:38;9.60;;;5.97;;
24721;SDS011;12826;52.368;5.258;2022-07-18T00:45:45;8.13;;;5.78;;
24721;SDS011;12826;52.368;5.258;2022-07-18T00:48:47;8.70;;;6.47;;
24721;SDS011;12826;52.368;5.258;2022-07-18T00:51:50;9.23;;;6.50;;
24721;SDS011;12826;52.368;5.258;2022-07-18T00:54:51;9.70;;;6.10;;
24721;SDS011;12826;52.368;5.258;2022-07-18T00:57:52;8.63;;;6.32;;
24721;SDS011;12826;52.368;5.258;2022-07-18T01:00:53;9.43;;;5.95;;
24721;SDS011;12826;52.368;5.258;2022-07-18T01:04:14;9.52;;;5.85;;
24721;SDS011;12826;52.368;5.258;2022-07-18T01:07:19;9.25;;;6.25;;
24721;SDS011;12826;52.368;5.258;2022-07-18T01:10:19;11.15;;;6.38;;
24721;SDS011;12826;52.368;5.258;2022-07-18T01:13:20;10.27;;;6.18;;
24721;SDS011;12826;52.368;5.258;2022-07-18T01:16:23;9.73;;;5.57;;
24721;SDS011;12826;52.368;5.258;2022-07-18T01:19:24;11.48;;;6.40;;
24721;SDS011;12826;52.368;5.258;2022-07-18T01:22:24;9.50;;;6.05;;
24721;SDS011;12826;52.368;5.258;2022-07-18T01:25:28;8.77;;;6.13;;
24721;SDS011;12826;52.368;5.258;2022-07-18T01:28:28;8.48;;;6.30;;
24721;SDS011;12826;52.368;5.258;2022-07-18T01:31:29;8.60;;;5.85;;
24721;SDS011;12826;52.368;5.258;2022-07-18T01:34:33;11.15;;;6.35;;
24721;SDS011;12826;52.368;5.258;2022-07-18T01:37:35;10.88;;;6.70;;
24721;SDS011;12826;52.368;5.258;2022-07-18T01:40:36;10.35;;;5.68;;
24721;SDS011;12826;52.368;5.258;2022-07-18T01:43:39;12.55;;;6.35;;
24721;SDS011;12826;52.368;5.258;2022-07-18T01:46:41;9.48;;;6.75;;
24721;SDS011;12826;52.368;5.258;2022-07-18T01:49:43;14.45;;;6.60;;
24721;SDS011;12826;52.368;5.258;2022-07-18T01:52:43;11.00;;;6.35;;
24721;SDS011;12826;52.368;5.258;2022-07-18T01:55:44;11.27;;;5.82;;
24721;SDS011;12826;52.368;5.258;2022-07-18T01:58:44;8.02;;;6.07;;
24721;SDS011;12826;52.368;5.258;2022-07-18T02:01:45;9.38;;;6.38;;
24721;SDS011;12826;52.368;5.258;2022-07-18T02:04:46;10.77;;;5.95;;
24721;SDS011;12826;52.368;5.258;2022-07-18T02:08:02;10.00;;;6.38;;
24721;SDS011;12826;52.368;5.258;2022-07-18T02:11:03;11.13;;;6.25;;
24721;SDS011;12826;52.368;5.258;2022-07-18T02:14:04;10.07;;;5.97;;
24721;SDS011;12826;52.368;5.258;2022-07-18T02:17:05;9.43;;;6.32;;
24721;SDS011;12826;52.368;5.258;2022-07-18T02:20:07;10.38;;;6.32;;
24721;SDS011;12826;52.368;5.258;2022-07-18T02:23:11;8.65;;;5.90;;
24721;SDS011;12826;52.368;5.258;2022-07-18T02:26:11;9.70;;;6.05;;
24721;SDS011;12826;52.368;5.258;2022-07-18T02:29:12;7.45;;;5.45;;
24721;SDS011;12826;52.368;5.258;2022-07-18T02:32:12;8.30;;;5.40;;
24721;SDS011;12826;52.368;5.258;2022-07-18T02:35:13;10.93;;;6.03;;
24721;SDS011;12826;52.368;5.258;2022-07-18T02:38:14;10.85;;;5.78;;
24721;SDS011;12826;52.368;5.258;2022-07-18T02:41:14;9.70;;;5.47;;
24721;SDS011;12826;52.368;5.258;2022-07-18T02:44:15;9.80;;;5.63;;
24721;SDS011;12826;52.368;5.258;2022-07-18T02:47:15;7.85;;;5.30;;
24721;SDS011;12826;52.368;5.258;2022-07-18T02:50:16;9.27;;;5.57;;
24721;SDS011;12826;52.368;5.258;2022-07-18T02:53:16;7.32;;;5.35;;
24721;SDS011;12826;52.368;5.258;2022-07-18T02:56:20;7.88;;;5.57;;
24721;SDS011;12826;52.368;5.258;2022-07-18T02:59:20;10.13;;;5.57;;
24721;SDS011;12826;52.368;5.258;2022-07-18T03:02:24;9.18;;;5.22;;
24721;SDS011;12826;52.368;5.258;2022-07-18T03:05:24;7.43;;;5.28;;
24721;SDS011;12826;52.368;5.258;2022-07-18T03:08:25;8.13;;;5.20;;
24721;SDS011;12826;52.368;5.258;2022-07-18T03:11:25;8.57;;;5.32;;
24721;SDS011;12826;52.368;5.258;2022-07-18T03:14:26;9.25;;;5.72;;
24721;SDS011;12826;52.368;5.258;2022-07-18T03:17:27;10.45;;;5.80;;
24721;SDS011;12826;52.368;5.258;2022-07-18T03:20:31;10.90;;;5.45;;
24721;SDS011;12826;52.368;5.258;2022-07-18T03:23:39;8.40;;;4.90;;
24721;SDS011;12826;52.368;5.258;2022-07-18T03:26:40;7.07;;;4.95;;
24721;SDS011;12826;52.368;5.258;2022-07-18T03:29:41;8.90;;;5.38;;
24721;SDS011;12826;52.368;5.258;2022-07-18T03:32:56;9.35;;;5.18;;
24721;SDS011;12826;52.368;5.258;2022-07-18T03:35:57;7.00;;;5.35;;
24721;SDS011;12826;52.368;5.258;2022-07-18T03:38:58;6.85;;;5.15;;
24721;SDS011;12826;52.368;5.258;2022-07-18T03:41:59;10.00;;;5.47;;
24721;SDS011;12826;52.368;5.258;2022-07-18T03:45:02;9.57;;;4.88;;
24721;SDS011;12826;52.368;5.258;2022-07-18T03:48:04;8.30;;;5.05;;
24721;SDS011;12826;52.368;5.258;2022-07-18T03:51:06;7.80;;;4.97;;
24721;SDS011;12826;52.368;5.258;2022-07-18T03:54:06;9.40;;;4.88;;
24721;SDS011;12826;52.368;5.258;2022-07-18T03:57:10;7.80;;;4.80;;
24721;SDS011;12826;52.368;5.258;2022-07-18T04:00:19;8.60;;;4.68;;
24721;SDS011;12826;52.368;5.258;2022-07-18T04:03:20;12.43;;;5.50;;
24721;SDS011;12826;52.368;5.258;2022-07-18T04:06:23;7.88;;;4.60;;
24721;SDS011;12826;52.368;5.258;2022-07-18T04:09:28;7.50;;;4.57;;
24721;SDS011;12826;52.368;5.258;2022-07-18T04:12:31;8.05;;;4.40;;
24721;SDS011;12826;52.368;5.258;2022-07-18T04:15:45;8.55;;;4.90;;
24721;SDS011;12826;52.368;5.258;2022-07-18T04:18:51;8.75;;;4.50;;
24721;SDS011;12826;52.368;5.258;2022-07-18T04:21:55;6.50;;;4.68;;
24721;SDS011;12826;52.368;5.258;2022-07-18T04:25:02;7.22;;;4.43;;
24721;SDS011;12826;52.368;5.258;2022-07-18T04:28:07;7.28;;;4.38;;
24721;SDS011;12826;52.368;5.258;2022-07-18T04:31:12;7.13;;;4.82;;
24721;SDS011;12826;52.368;5.258;2022-07-18T04:34:14;9.60;;;4.95;;
24721;SDS011;12826;52.368;5.258;2022-07-18T04:37:18;7.53;;;4.90;;
24721;SDS011;12826;52.368;5.258;2022-07-18T04:40:19;8.32;;;5.13;;
24721;SDS011;12826;52.368;5.258;2022-07-18T04:43:21;9.93;;;5.10;;
24721;SDS011;12826;52.368;5.258;2022-07-18T04:46:22;8.13;;;4.30;;
24721;SDS011;12826;52.368;5.258;2022-07-18T04:49:23;7.53;;;4.45;;
24721;SDS011;12826;52.368;5.258;2022-07-18T04:52:45;7.00;;;4.77;;
24721;SDS011;12826;52.368;5.258;2022-07-18T04:56:05;11.63;;;4.50;;
24721;SDS011;12826;52.368;5.258;2022-07-18T04:59:13;10.75;;;4.65;;
24721;SDS011;12826;52.368;5.258;2022-07-18T05:02:16;5.15;;;4.03;;
24721;SDS011;12826;52.368;5.258;2022-07-18T05:05:17;9.20;;;4.53;;
24721;SDS011;12826;52.368;5.258;2022-07-18T05:08:22;7.53;;;4.47;;
24721;SDS011;12826;52.368;5.258;2022-07-18T05:11:24;9.48;;;5.10;;
24721;SDS011;12826;52.368;5.258;2022-07-18T05:14:29;8.45;;;4.43;;
24721;SDS011;12826;52.368;5.258;2022-07-18T05:17:33;7.95;;;4.60;;
24721;SDS011;12826;52.368;5.258;2022-07-18T05:20:36;7.80;;;4.57;;
24721;SDS011;12826;52.368;5.258;2022-07-18T05:23:52;7.22;;;4.82;;
24721;SDS011;12826;52.368;5.258;2022-07-18T05:26:56;9.80;;;5.13;;
24721;SDS011;12826;52.368;5.258;2022-07-18T05:30:03;8.07;;;4.97;;
24721;SDS011;12826;52.368;5.258;2022-07-18T05:36:10;8.27;;;4.63;;
24721;SDS011;12826;52.368;5.258;2022-07-18T05:39:19;10.90;;;5.00;;
24721;SDS011;12826;52.368;5.258;2022-07-18T05:42:23;8.63;;;4.80;;
24721;SDS011;12826;52.368;5.258;2022-07-18T05:45:28;7.40;;;5.15;;
24721;SDS011;12826;52.368;5.258;2022-07-18T05:48:31;7.40;;;4.78;;
24721;SDS011;12826;52.368;5.258;2022-07-18T05:51:35;6.85;;;4.57;;
24721;SDS011;12826;52.368;5.258;2022-07-18T05:54:38;10.77;;;4.82;;
24721;SDS011;12826;52.368;5.258;2022-07-18T05:57:50;9.60;;;4.63;;
24721;SDS011;12826;52.368;5.258;2022-07-18T06:01:09;6.82;;;3.80;;
24721;SDS011;12826;52.368;5.258;2022-07-18T06:04:31;7.53;;;4.22;;
24721;SDS011;12826;52.368;5.258;2022-07-18T06:07:54;7.35;;;4.20;;
24721;SDS011;12826;52.368;5.258;2022-07-18T06:10:59;8.10;;;4.20;;
24721;SDS011;12826;52.368;5.258;2022-07-18T06:13:59;11.80;;;4.25;;
24721;SDS011;12826;52.368;5.258;2022-07-18T06:17:07;8.43;;;3.83;;
24721;SDS011;12826;52.368;5.258;2022-07-18T06:20:09;18.88;;;6.82;;
24721;SDS011;12826;52.368;5.258;2022-07-18T06:23:12;32.92;;;9.13;;
24721;SDS011;12826;52.368;5.258;2022-07-18T06:26:12;8.40;;;4.45;;
24721;SDS011;12826;52.368;5.258;2022-07-18T06:29:12;21.52;;;8.10;;
24721;SDS011;12826;52.368;5.258;2022-07-18T06:32:13;16.40;;;6.85;;
24721;SDS011;12826;52.368;5.258;2022-07-18T06:35:13;14.60;;;6.32;;
24721;SDS011;12826;52.368;5.258;2022-07-18T06:38:14;46.70;;;12.73;;
24721;SDS011;12826;52.368;5.258;2022-07-18T06:41:15;8.88;;;4.78;;
24721;SDS011;12826;52.368;5.258;2022-07-18T06:44:15;21.80;;;7.15;;
24721;SDS011;12826;52.368;5.258;2022-07-18T06:47:16;21.20;;;7.13;;
24721;SDS011;12826;52.368;5.258;2022-07-18T06:50:16;17.75;;;7.32;;
24721;SDS011;12826;52.368;5.258;2022-07-18T06:53:17;10.02;;;5.03;;
24721;SDS011;12826;52.368;5.258;2022-07-18T06:56:17;8.52;;;4.93;;
24721;SDS011;12826;52.368;5.258;2022-07-18T06:59:17;10.57;;;4.85;;
24721;SDS011;12826;52.368;5.258;2022-07-18T07:02:18;7.43;;;4.60;;
24721;SDS011;12826;52.368;5.258;2022-07-18T07:05:21;9.30;;;4.90;;
24721;SDS011;12826;52.368;5.258;2022-07-18T07:08:32;9.98;;;5.07;;
24721;SDS011;12826;52.368;5.258;2022-07-18T07:11:33;8.85;;;4.72;;
24721;SDS011;12826;52.368;5.258;2022-07-18T07:14:37;18.23;;;6.18;;
24721;SDS011;12826;52.368;5.258;2022-07-18T07:17:44;9.10;;;4.90;;
24721;SDS011;12826;52.368;5.258;2022-07-18T07:20:47;7.50;;;4.82;;
24721;SDS011;12826;52.368;5.258;2022-07-18T07:23:47;10.23;;;4.93;;
24721;SDS011;12826;52.368;5.258;2022-07-18T07:26:53;7.45;;;4.55;;
24721;SDS011;12826;52.368;5.258;2022-07-18T07:29:57;8.73;;;4.95;;
24721;SDS011;12826;52.368;5.258;2022-07-18T07:32:59;6.18;;;4.10;;
24721;SDS011;12826;52.368;5.258;2022-07-18T07:36:10;6.93;;;4.40;;
24721;SDS011;12826;52.368;5.258;2022-07-18T07:39:11;7.93;;;4.25;;
24721;SDS011;12826;52.368;5.258;2022-07-18T07:42:14;7.30;;;4.45;;
24721;SDS011;12826;52.368;5.258;2022-07-18T07:45:21;5.13;;;3.67;;
24721;SDS011;12826;52.368;5.258;2022-07-18T07:48:27;8.73;;;4.10;;
24721;SDS011;12826;52.368;5.258;2022-07-18T07:51:32;7.70;;;4.55;;
24721;SDS011;12826;52.368;5.258;2022-07-18T07:54:35;10.50;;;3.75;;
24721;SDS011;12826;52.368;5.258;2022-07-18T07:57:40;7.13;;;4.50;;
24721;SDS011;12826;52.368;5.258;2022-07-18T08:00:44;8.13;;;3.80;;
24721;SDS011;12826;52.368;5.258;2022-07-18T08:03:54;8.13;;;4.25;;
24721;SDS011;12826;52.368;5.258;2022-07-18T08:06:55;11.07;;;3.78;;
24721;SDS011;12826;52.368;5.258;2022-07-18T08:09:55;7.70;;;3.53;;
24721;SDS011;12826;52.368;5.258;2022-07-18T08:12:56;11.93;;;4.20;;
24721;SDS011;12826;52.368;5.258;2022-07-18T08:15:57;6.78;;;3.70;;
24721;SDS011;12826;52.368;5.258;2022-07-18T08:18:57;9.85;;;3.58;;
24721;SDS011;12826;52.368;5.258;2022-07-18T08:21:58;6.22;;;3.25;;
24721;SDS011;12826;52.368;5.258;2022-07-18T08:24:58;9.23;;;3.45;;
24721;SDS011;12826;52.368;5.258;2022-07-18T08:27:59;6.15;;;3.00;;
24721;SDS011;12826;52.368;5.258;2022-07-18T08:30:59;6.55;;;2.83;;
24721;SDS011;12826;52.368;5.258;2022-07-18T08:34:00;6.20;;;3.20;;
24721;SDS011;12826;52.368;5.258;2022-07-18T08:37:00;7.60;;;3.20;;
24721;SDS011;12826;52.368;5.258;2022-07-18T08:40:01;13.38;;;4.43;;
24721;SDS011;12826;52.368;5.258;2022-07-18T08:43:05;5.43;;;2.83;;
24721;SDS011;12826;52.368;5.258;2022-07-18T08:46:05;5.90;;;2.95;;
24721;SDS011;12826;52.368;5.258;2022-07-18T08:49:07;8.32;;;3.20;;
24721;SDS011;12826;52.368;5.258;2022-07-18T08:52:07;4.47;;;2.67;;
24721;SDS011;12826;52.368;5.258;2022-07-18T08:55:08;6.30;;;2.75;;
24721;SDS011;12826;52.368;5.258;2022-07-18T08:58:15;8.27;;;2.72;;
24721;SDS011;12826;52.368;5.258;2022-07-18T09:01:32;17.80;;;4.68;;
24721;SDS011;12826;52.368;5.258;2022-07-18T09:04:39;5.57;;;2.40;;
24721;SDS011;12826;52.368;5.258;2022-07-18T09:07:41;5.28;;;2.42;;
24721;SDS011;12826;52.368;5.258;2022-07-18T09:17:38;6.15;;;3.35;;
24721;SDS011;12826;52.368;5.258;2022-07-18T09:20:44;3.45;;;2.30;;
24721;SDS011;12826;52.368;5.258;2022-07-18T09:23:59;5.28;;;2.40;;
24721;SDS011;12826;52.368;5.258;2022-07-18T09:27:03;5.97;;;2.30;;
24721;SDS011;12826;52.368;5.258;2022-07-18T09:30:11;4.93;;;2.50;;
24721;SDS011;12826;52.368;5.258;2022-07-18T09:33:20;5.90;;;2.55;;
24721;SDS011;12826;52.368;5.258;2022-07-18T09:36:36;4.80;;;2.10;;
24721;SDS011;12826;52.368;5.258;2022-07-18T09:43:50;4.57;;;2.40;;
24721;SDS011;12826;52.368;5.258;2022-07-18T09:50:30;3.45;;;2.00;;
24721;SDS011;12826;52.368;5.258;2022-07-18T09:53:44;4.53;;;2.50;;
24721;SDS011;12826;52.368;5.258;2022-07-18T09:56:50;3.70;;;2.25;;
24721;SDS011;12826;52.368;5.258;2022-07-18T10:00:23;3.75;;;1.92;;
24721;SDS011;12826;52.368;5.258;2022-07-18T10:03:31;4.50;;;2.50;;
24721;SDS011;12826;52.368;5.258;2022-07-18T10:06:42;4.43;;;2.00;;
24721;SDS011;12826;52.368;5.258;2022-07-18T10:10:07;3.80;;;2.15;;
24721;SDS011;12826;52.368;5.258;2022-07-18T10:13:57;4.43;;;2.45;;
24721;SDS011;12826;52.368;5.258;2022-07-18T10:24:38;5.95;;;2.40;;
24721;SDS011;12826;52.368;5.258;2022-07-18T10:28:11;4.35;;;2.10;;
24721;SDS011;12826;52.368;5.258;2022-07-18T10:36:25;13.93;;;3.25;;
24721;SDS011;12826;52.368;5.258;2022-07-18T10:40:06;5.20;;;2.38;;
24721;SDS011;12826;52.368;5.258;2022-07-18T10:50:32;6.43;;;2.20;;
24721;SDS011;12826;52.368;5.258;2022-07-18T10:54:29;4.00;;;2.28;;
24721;SDS011;12826;52.368;5.258;2022-07-18T11:22:30;3.25;;;2.35;;
24721;SDS011;12826;52.368;5.258;2022-07-18T11:25:40;7.38;;;2.60;;
24721;SDS011;12826;52.368;5.258;2022-07-18T11:28:44;5.50;;;2.45;;
24721;SDS011;12826;52.368;5.258;2022-07-18T11:31:53;5.28;;;2.28;;
24721;SDS011;12826;52.368;5.258;2022-07-18T11:35:07;5.85;;;2.17;;
24721;SDS011;12826;52.368;5.258;2022-07-18T11:38:09;9.32;;;2.30;;
24721;SDS011;12826;52.368;5.258;2022-07-18T11:41:15;6.28;;;2.47;;
24721;SDS011;12826;52.368;5.258;2022-07-18T11:44:24;6.50;;;2.33;;
24721;SDS011;12826;52.368;5.258;2022-07-18T11:47:30;3.55;;;2.28;;
24721;SDS011;12826;52.368;5.258;2022-07-18T11:50:42;6.30;;;2.42;;
24721;SDS011;12826;52.368;5.258;2022-07-18T11:57:30;5.47;;;2.30;;
24721;SDS011;12826;52.368;5.258;2022-07-18T12:00:57;10.80;;;2.70;;
24721;SDS011;12826;52.368;5.258;2022-07-18T12:04:22;3.22;;;2.03;;
24721;SDS011;12826;52.368;5.258;2022-07-18T12:07:33;4.78;;;2.03;;
24721;SDS011;12826;52.368;5.258;2022-07-18T12:10:39;3.85;;;2.25;;
24721;SDS011;12826;52.368;5.258;2022-07-18T12:13:44;5.10;;;2.80;;
24721;SDS011;12826;52.368;5.258;2022-07-18T12:17:18;5.70;;;2.25;;
24721;SDS011;12826;52.368;5.258;2022-07-18T12:20:25;3.58;;;2.40;;
24721;SDS011;12826;52.368;5.258;2022-07-18T12:23:28;3.35;;;2.22;;
24721;SDS011;12826;52.368;5.258;2022-07-18T12:26:33;2.08;;;1.88;;
24721;SDS011;12826;52.368;5.258;2022-07-18T12:33:20;6.75;;;2.33;;
24721;SDS011;12826;52.368;5.258;2022-07-18T12:36:29;7.93;;;3.05;;
24721;SDS011;12826;52.368;5.258;2022-07-18T12:39:43;2.78;;;2.40;;
24721;SDS011;12826;52.368;5.258;2022-07-18T12:46:54;6.68;;;3.72;;
24721;SDS011;12826;52.368;5.258;2022-07-18T12:50:09;4.53;;;2.60;;
24721;SDS011;12826;52.368;5.258;2022-07-18T12:53:12;7.40;;;3.15;;
24721;SDS011;12826;52.368;5.258;2022-07-18T12:59:54;4.38;;;2.58;;
24721;SDS011;12826;52.368;5.258;2022-07-18T13:03:17;4.78;;;2.42;;
24721;SDS011;12826;52.368;5.258;2022-07-18T13:06:26;4.47;;;2.50;;
24721;SDS011;12826;52.368;5.258;2022-07-18T13:09:38;4.75;;;2.60;;
24721;SDS011;12826;52.368;5.258;2022-07-18T13:12:44;5.65;;;2.60;;
24721;SDS011;12826;52.368;5.258;2022-07-18T13:15:53;2.83;;;2.60;;
24721;SDS011;12826;52.368;5.258;2022-07-18T13:19:23;2.53;;;2.33;;
24721;SDS011;12826;52.368;5.258;2022-07-18T13:22:30;3.13;;;2.38;;
24721;SDS011;12826;52.368;5.258;2022-07-18T13:29:15;2.55;;;2.35;;
24721;SDS011;12826;52.368;5.258;2022-07-18T13:32:33;4.07;;;2.22;;
24721;SDS011;12826;52.368;5.258;2022-07-18T13:35:47;4.18;;;2.70;;
24721;SDS011;12826;52.368;5.258;2022-07-18T13:38:51;3.75;;;2.60;;
24721;SDS011;12826;52.368;5.258;2022-07-18T13:42:11;3.35;;;2.60;;
24721;SDS011;12826;52.368;5.258;2022-07-18T13:45:12;4.88;;;2.40;;
24721;SDS011;12826;52.368;5.258;2022-07-18T13:48:32;3.37;;;2.33;;
24721;SDS011;12826;52.368;5.258;2022-07-18T13:51:40;3.15;;;2.40;;
24721;SDS011;12826;52.368;5.258;2022-07-18T13:54:56;3.78;;;2.03;;
24721;SDS011;12826;52.368;5.258;2022-07-18T13:57:57;2.10;;;1.88;;
24721;SDS011;12826;52.368;5.258;2022-07-18T14:01:02;4.47;;;1.92;;
24721;SDS011;12826;52.368;5.258;2022-07-18T14:04:11;6.03;;;2.08;;
24721;SDS011;12826;52.368;5.258;2022-07-18T14:07:16;3.58;;;2.10;;
24721;SDS011;12826;52.368;5.258;2022-07-18T14:10:22;2.03;;;1.83;;
24721;SDS011;12826;52.368;5.258;2022-07-18T14:13:38;3.13;;;2.17;;
24721;SDS011;12826;52.368;5.258;2022-07-18T14:16:42;3.33;;;2.22;;
24721;SDS011;12826;52.368;5.258;2022-07-18T14:19:49;3.00;;;2.00;;
24721;SDS011;12826;52.368;5.258;2022-07-18T14:23:21;3.10;;;2.10;;
24721;SDS011;12826;52.368;5.258;2022-07-18T14:26:27;2.63;;;2.13;;
24721;SDS011;12826;52.368;5.258;2022-07-18T14:29:47;3.10;;;2.05;;
24721;SDS011;12826;52.368;5.258;2022-07-18T14:32:48;2.25;;;1.85;;
24721;SDS011;12826;52.368;5.258;2022-07-18T14:35:51;2.53;;;1.90;;
24721;SDS011;12826;52.368;5.258;2022-07-18T14:38:52;3.00;;;2.03;;
24721;SDS011;12826;52.368;5.258;2022-07-18T14:41:57;2.95;;;1.80;;
24721;SDS011;12826;52.368;5.258;2022-07-18T14:45:03;2.25;;;1.83;;
24721;SDS011;12826;52.368;5.258;2022-07-18T14:48:12;3.33;;;1.90;;
24721;SDS011;12826;52.368;5.258;2022-07-18T14:51:14;3.13;;;1.80;;
24721;SDS011;12826;52.368;5.258;2022-07-18T14:54:35;2.90;;;2.10;;
24721;SDS011;12826;52.368;5.258;2022-07-18T14:57:43;3.38;;;1.75;;
24721;SDS011;12826;52.368;5.258;2022-07-18T15:01:00;4.03;;;2.03;;
24721;SDS011;12826;52.368;5.258;2022-07-18T15:04:01;3.15;;;2.20;;
24721;SDS011;12826;52.368;5.258;2022-07-18T15:07:02;2.83;;;2.08;;
24721;SDS011;12826;52.368;5.258;2022-07-18T15:10:13;2.08;;;1.55;;
24721;SDS011;12826;52.368;5.258;2022-07-18T15:13:19;2.70;;;2.22;;
24721;SDS011;12826;52.368;5.258;2022-07-18T15:16:21;2.97;;;1.90;;
24721;SDS011;12826;52.368;5.258;2022-07-18T15:19:29;4.47;;;1.70;;
24721;SDS011;12826;52.368;5.258;2022-07-18T15:22:30;2.45;;;1.88;;
24721;SDS011;12826;52.368;5.258;2022-07-18T15:25:42;1.90;;;1.80;;
24721;SDS011;12826;52.368;5.258;2022-07-18T15:28:51;2.58;;;1.60;;
24721;SDS011;12826;52.368;5.258;2022-07-18T15:31:54;2.40;;;2.03;;
24721;SDS011;12826;52.368;5.258;2022-07-18T15:35:10;3.72;;;1.88;;
24721;SDS011;12826;52.368;5.258;2022-07-18T15:38:11;2.97;;;2.38;;
24721;SDS011;12826;52.368;5.258;2022-07-18T15:41:21;5.13;;;2.13;;
24721;SDS011;12826;52.368;5.258;2022-07-18T15:44:47;2.60;;;1.88;;
24721;SDS011;12826;52.368;5.258;2022-07-18T15:47:53;4.22;;;2.05;;
24721;SDS011;12826;52.368;5.258;2022-07-18T15:51:04;4.30;;;2.38;;
24721;SDS011;12826;52.368;5.258;2022-07-18T15:54:15;4.90;;;3.15;;
24721;SDS011;12826;52.368;5.258;2022-07-18T15:57:49;2.83;;;1.90;;
24721;SDS011;12826;52.368;5.258;2022-07-18T16:00:59;4.20;;;2.00;;
24721;SDS011;12826;52.368;5.258;2022-07-18T16:04:16;2.45;;;2.25;;
24721;SDS011;12826;52.368;5.258;2022-07-18T16:07:43;4.32;;;2.00;;
24721;SDS011;12826;52.368;5.258;2022-07-18T16:10:47;3.45;;;2.42;;
24721;SDS011;12826;52.368;5.258;2022-07-18T16:13:50;2.55;;;2.00;;
24721;SDS011;12826;52.368;5.258;2022-07-18T16:16:56;7.82;;;2.35;;
24721;SDS011;12826;52.368;5.258;2022-07-18T16:19:59;3.15;;;2.08;;
24721;SDS011;12826;52.368;5.258;2022-07-18T16:23:04;2.42;;;2.22;;
24721;SDS011;12826;52.368;5.258;2022-07-18T16:26:08;3.45;;;2.45;;
24721;SDS011;12826;52.368;5.258;2022-07-18T16:29:18;4.10;;;2.50;;
24721;SDS011;12826;52.368;5.258;2022-07-18T16:32:26;5.60;;;2.30;;
24721;SDS011;12826;52.368;5.258;2022-07-18T16:35:27;7.10;;;2.47;;
24721;SDS011;12826;52.368;5.258;2022-07-18T16:38:30;3.17;;;2.50;;
24721;SDS011;12826;52.368;5.258;2022-07-18T16:41:36;2.90;;;2.50;;
24721;SDS011;12826;52.368;5.258;2022-07-18T16:45:00;7.10;;;2.95;;
24721;SDS011;12826;52.368;5.258;2022-07-18T16:48:10;4.55;;;2.60;;
24721;SDS011;12826;52.368;5.258;2022-07-18T16:51:20;8.02;;;2.90;;
24721;SDS011;12826;52.368;5.258;2022-07-18T16:58:07;3.63;;;2.80;;
24721;SDS011;12826;52.368;5.258;2022-07-18T17:01:13;3.17;;;2.55;;
24721;SDS011;12826;52.368;5.258;2022-07-18T17:04:20;4.00;;;3.20;;
24721;SDS011;12826;52.368;5.258;2022-07-18T17:07:21;3.47;;;2.47;;
24721;SDS011;12826;52.368;5.258;2022-07-18T17:10:34;3.50;;;2.90;;
24721;SDS011;12826;52.368;5.258;2022-07-18T17:13:45;5.57;;;3.08;;
24721;SDS011;12826;52.368;5.258;2022-07-18T17:16:48;5.38;;;2.70;;
24721;SDS011;12826;52.368;5.258;2022-07-18T17:19:49;3.25;;;2.53;;
24721;SDS011;12826;52.368;5.258;2022-07-18T17:22:55;3.33;;;2.42;;
24721;SDS011;12826;52.368;5.258;2022-07-18T17:25:56;3.88;;;2.97;;
24721;SDS011;12826;52.368;5.258;2022-07-18T17:28:57;5.35;;;2.75;;
24721;SDS011;12826;52.368;5.258;2022-07-18T17:31:57;5.03;;;3.00;;
24721;SDS011;12826;52.368;5.258;2022-07-18T17:34:58;5.70;;;2.97;;
24721;SDS011;12826;52.368;5.258;2022-07-18T17:37:59;3.50;;;2.78;;
24721;SDS011;12826;52.368;5.258;2022-07-18T17:41:00;4.13;;;2.97;;
24721;SDS011;12826;52.368;5.258;2022-07-18T17:44:07;5.25;;;2.92;;
24721;SDS011;12826;52.368;5.258;2022-07-18T17:47:11;4.43;;;3.05;;
24721;SDS011;12826;52.368;5.258;2022-07-18T17:50:31;4.75;;;3.00;;
24721;SDS011;12826;52.368;5.258;2022-07-18T17:57:47;8.32;;;4.25;;
24721;SDS011;12826;52.368;5.258;2022-07-18T18:01:04;6.53;;;3.72;;
24721;SDS011;12826;52.368;5.258;2022-07-18T18:04:17;7.25;;;3.75;;
24721;SDS011;12826;52.368;5.258;2022-07-18T18:07:42;6.65;;;3.30;;
24721;SDS011;12826;52.368;5.258;2022-07-18T18:10:51;5.85;;;3.28;;
24721;SDS011;12826;52.368;5.258;2022-07-18T18:14:09;9.15;;;3.50;;
24721;SDS011;12826;52.368;5.258;2022-07-18T18:17:18;4.55;;;2.92;;
24721;SDS011;12826;52.368;5.258;2022-07-18T18:20:28;7.13;;;3.67;;
24721;SDS011;12826;52.368;5.258;2022-07-18T18:23:46;17.80;;;4.90;;
24721;SDS011;12826;52.368;5.258;2022-07-18T18:27:27;19.63;;;4.95;;
24721;SDS011;12826;52.368;5.258;2022-07-18T18:30:40;8.27;;;3.33;;
24721;SDS011;12826;52.368;5.258;2022-07-18T18:33:44;9.32;;;3.55;;
24721;SDS011;12826;52.368;5.258;2022-07-18T18:37:07;6.82;;;3.30;;
24721;SDS011;12826;52.368;5.258;2022-07-18T18:40:13;7.30;;;3.30;;
24721;SDS011;12826;52.368;5.258;2022-07-18T18:43:36;18.90;;;4.65;;
24721;SDS011;12826;52.368;5.258;2022-07-18T18:46:40;8.10;;;3.80;;
24721;SDS011;12826;52.368;5.258;2022-07-18T18:49:40;9.20;;;3.85;;
24721;SDS011;12826;52.368;5.258;2022-07-18T18:52:51;12.27;;;4.88;;
24721;SDS011;12826;52.368;5.258;2022-07-18T18:55:54;7.15;;;4.10;;
24721;SDS011;12826;52.368;5.258;2022-07-18T18:58:59;8.38;;;4.20;;
24721;SDS011;12826;52.368;5.258;2022-07-18T19:02:01;9.48;;;4.22;;
24721;SDS011;12826;52.368;5.258;2022-07-18T19:05:01;6.65;;;4.38;;
24721;SDS011;12826;52.368;5.258;2022-07-18T19:08:06;11.75;;;5.28;;
24721;SDS011;12826;52.368;5.258;2022-07-18T19:11:16;7.47;;;4.57;;
24721;SDS011;12826;52.368;5.258;2022-07-18T19:14:32;9.40;;;4.80;;
24721;SDS011;12826;52.368;5.258;2022-07-18T19:21:15;17.85;;;5.25;;
24721;SDS011;12826;52.368;5.258;2022-07-18T19:24:18;4.63;;;3.45;;
24721;SDS011;12826;52.368;5.258;2022-07-18T19:27:35;6.30;;;3.45;;
24721;SDS011;12826;52.368;5.258;2022-07-18T19:33:49;9.98;;;4.07;;
24721;SDS011;12826;52.368;5.258;2022-07-18T19:36:51;4.78;;;3.40;;
24721;SDS011;12826;52.368;5.258;2022-07-18T19:39:51;7.20;;;3.70;;
24721;SDS011;12826;52.368;5.258;2022-07-18T19:42:51;52.20;;;6.78;;
24721;SDS011;12826;52.368;5.258;2022-07-18T19:45:55;7.72;;;4.00;;
24721;SDS011;12826;52.368;5.258;2022-07-18T19:49:00;14.25;;;4.30;;
24721;SDS011;12826;52.368;5.258;2022-07-18T19:52:03;7.20;;;4.05;;
24721;SDS011;12826;52.368;5.258;2022-07-18T19:55:06;9.70;;;4.50;;
24721;SDS011;12826;52.368;5.258;2022-07-18T19:58:15;12.63;;;4.53;;
24721;SDS011;12826;52.368;5.258;2022-07-18T20:01:40;12.20;;;5.25;;
24721;SDS011;12826;52.368;5.258;2022-07-18T20:04:47;15.10;;;5.32;;
24721;SDS011;12826;52.368;5.258;2022-07-18T20:07:51;11.00;;;4.72;;
24721;SDS011;12826;52.368;5.258;2022-07-18T20:11:01;14.38;;;5.53;;
24721;SDS011;12826;52.368;5.258;2022-07-18T20:14:04;7.50;;;3.67;;
24721;SDS011;12826;52.368;5.258;2022-07-18T20:17:05;5.43;;;3.35;;